createdAt,value
2019-06-20T00:02:04.489Z,20.60
2019-06-20T00:04:32.879Z,20.50
2019-06-20T00:07:01.280Z,20.30
2019-06-20T00:09:29.746Z,20.20
2019-06-20T00:11:58.233Z,19.80
2019-06-20T00:14:26.625Z,19.70
2019-06-20T00:16:55.266Z,19.70
2019-06-20T00:19:23.633Z,19.60
2019-06-20T00:21:52.036Z,19.60
2019-06-20T00:24:20.443Z,19.80
2019-06-20T00:26:48.824Z,19.60
2019-06-20T00:29:17.217Z,19.40
2019-06-20T00:31:45.643Z,19.40
2019-06-20T00:34:14.023Z,19.40
2019-06-20T00:36:42.429Z,19.40
2019-06-20T00:39:10.813Z,19.40
2019-06-20T00:41:39.209Z,19.40
2019-06-20T00:44:07.589Z,19.40
2019-06-20T00:46:35.992Z,19.50
2019-06-20T00:49:04.448Z,19.50
2019-06-20T00:51:33.380Z,19.60
2019-06-20T00:54:01.829Z,19.50
2019-06-20T00:56:30.230Z,19.40
2019-06-20T00:58:58.612Z,19.40
2019-06-20T01:01:27.048Z,19.40
2019-06-20T01:03:55.414Z,19.40
2019-06-20T01:06:23.805Z,19.40
2019-06-20T01:08:52.185Z,19.30
2019-06-20T01:11:20.592Z,19.10
2019-06-20T01:13:48.987Z,19.00
2019-06-20T01:16:17.388Z,18.90
2019-06-20T01:18:45.767Z,18.80
2019-06-20T01:21:15.704Z,18.80
2019-06-20T01:23:44.082Z,18.80
2019-06-20T01:26:12.509Z,18.90
2019-06-20T01:28:40.908Z,18.90
2019-06-20T01:31:09.292Z,19.00
2019-06-20T01:33:37.672Z,19.00
2019-06-20T01:36:06.150Z,19.00
2019-06-20T01:38:34.532Z,19.00
2019-06-20T01:41:05.948Z,19.00
2019-06-20T01:43:49.144Z,19.00
2019-06-20T01:46:03.250Z,19.00
2019-06-20T01:48:31.612Z,19.00
2019-06-20T01:51:00.012Z,18.90
2019-06-20T01:53:28.393Z,18.90
2019-06-20T01:55:58.065Z,18.80
2019-06-20T01:58:26.472Z,18.80
2019-06-20T02:00:55.197Z,18.80
2019-06-20T02:03:24.170Z,18.90
2019-06-20T02:05:52.566Z,18.80
2019-06-20T02:08:20.949Z,18.80
2019-06-20T02:10:49.333Z,18.90
2019-06-20T02:13:17.727Z,19.00
2019-06-20T02:15:46.116Z,18.90
2019-06-20T02:18:14.521Z,18.90
2019-06-20T02:20:52.013Z,18.80
2019-06-20T02:23:21.260Z,18.80
2019-06-20T02:25:49.716Z,18.80
2019-06-20T02:28:18.253Z,18.90
2019-06-20T02:30:47.079Z,18.90
2019-06-20T02:33:15.891Z,18.90
2019-06-20T02:35:44.272Z,18.90
2019-06-20T02:38:12.669Z,19.00
2019-06-20T02:40:41.135Z,19.00
2019-06-20T02:43:09.541Z,18.90
2019-06-20T02:45:37.995Z,19.00
2019-06-20T02:48:07.208Z,18.90
2019-06-20T02:50:35.677Z,18.80
2019-06-20T02:53:05.679Z,18.80
2019-06-20T02:55:34.233Z,18.70
2019-06-20T02:58:02.775Z,18.70
2019-06-20T03:00:39.971Z,18.70
2019-06-20T03:03:08.368Z,18.70
2019-06-20T03:05:36.767Z,18.60
2019-06-20T03:08:05.174Z,18.60
2019-06-20T03:10:33.565Z,18.60
2019-06-20T03:13:01.963Z,18.70
2019-06-20T03:15:30.348Z,18.60
2019-06-20T03:17:58.747Z,18.70
2019-06-20T03:20:27.132Z,18.70
2019-06-20T03:22:55.547Z,18.70
2019-06-20T03:25:23.932Z,18.70
2019-06-20T03:27:52.348Z,18.70
2019-06-20T03:30:20.815Z,18.70
2019-06-20T03:32:49.198Z,18.60
2019-06-20T03:35:17.581Z,18.60
2019-06-20T03:37:45.967Z,18.60
2019-06-20T03:40:14.900Z,18.60
2019-06-20T03:42:43.283Z,18.60
2019-06-20T03:45:11.769Z,18.60
2019-06-20T03:47:40.155Z,18.60
2019-06-20T03:50:09.186Z,18.60
2019-06-20T03:52:37.571Z,18.60
2019-06-20T03:55:06.504Z,18.60
2019-06-20T03:57:34.903Z,18.60
2019-06-20T04:00:07.405Z,18.50
2019-06-20T04:02:35.784Z,18.60
2019-06-20T04:05:05.101Z,18.60
2019-06-20T04:07:33.492Z,18.60
2019-06-20T04:10:01.889Z,18.60
2019-06-20T04:12:30.288Z,18.60
2019-06-20T04:14:58.698Z,18.70
2019-06-20T04:17:27.089Z,18.70
2019-06-20T04:19:55.493Z,18.70
2019-06-20T04:22:24.212Z,18.80
2019-06-20T04:24:52.613Z,18.80
2019-06-20T04:27:21.004Z,18.80
2019-06-20T04:29:49.406Z,18.90
2019-06-20T04:32:17.783Z,18.90
2019-06-20T04:34:46.191Z,19.00
2019-06-20T04:37:14.573Z,19.10
2019-06-20T04:39:42.971Z,19.20
2019-06-20T04:42:11.356Z,19.20
2019-06-20T04:44:39.765Z,19.30
2019-06-20T04:47:09.796Z,19.40
2019-06-20T04:49:38.236Z,19.50
2019-06-20T04:52:06.696Z,19.50
2019-06-20T04:54:35.164Z,19.60
2019-06-20T04:57:03.555Z,19.60
2019-06-20T04:59:32.333Z,19.60
2019-06-20T05:02:00.714Z,19.70
2019-06-20T05:04:29.112Z,19.70
2019-06-20T05:07:09.257Z,19.70
2019-06-20T05:09:37.668Z,19.80
2019-06-20T05:12:06.424Z,19.90
2019-06-20T05:14:34.834Z,20.00
2019-06-20T05:17:07.026Z,20.10
2019-06-20T05:19:33.348Z,20.20
2019-06-20T05:22:01.747Z,20.20
2019-06-20T05:24:30.154Z,20.30
2019-06-20T05:26:58.546Z,20.40
2019-06-20T05:29:26.942Z,20.50
2019-06-20T05:31:55.327Z,20.50
2019-06-20T05:34:23.723Z,20.60
2019-06-20T05:36:52.137Z,20.80
2019-06-20T05:39:20.525Z,21.00
2019-06-20T05:41:48.941Z,21.10
2019-06-20T05:44:17.332Z,21.30
2019-06-20T05:46:45.748Z,21.40
2019-06-20T05:49:14.133Z,21.60
2019-06-20T05:51:42.535Z,21.70
2019-06-20T05:54:10.928Z,21.60
2019-06-20T05:56:39.618Z,21.80
2019-06-20T05:59:08.270Z,21.90
2019-06-20T06:01:36.771Z,22.00
2019-06-20T06:04:05.162Z,22.20
2019-06-20T06:06:33.554Z,22.30
2019-06-20T06:09:01.988Z,22.40
2019-06-20T06:11:30.417Z,22.50
2019-06-20T06:13:58.821Z,22.70
2019-06-20T06:16:28.459Z,22.80
2019-06-20T06:18:56.924Z,22.80
2019-06-20T06:21:25.320Z,22.90
2019-06-20T06:23:53.713Z,22.90
2019-06-20T06:26:22.106Z,23.10
2019-06-20T06:28:50.482Z,23.30
2019-06-20T06:31:18.876Z,23.20
2019-06-20T06:33:47.291Z,23.20
2019-06-20T06:36:15.757Z,23.20
2019-06-20T06:38:44.136Z,23.20
2019-06-20T06:41:12.530Z,23.30
2019-06-20T06:43:42.157Z,23.30
2019-06-20T06:46:10.808Z,23.50
2019-06-20T06:48:39.198Z,23.40
2019-06-20T06:51:07.666Z,23.60
2019-06-20T06:53:36.044Z,23.70
2019-06-20T06:56:04.693Z,23.60
2019-06-20T06:58:33.162Z,23.60
2019-06-20T07:01:01.560Z,23.70
2019-06-20T07:03:29.984Z,23.70
2019-06-20T07:05:58.390Z,23.60
2019-06-20T07:08:26.793Z,23.70
2019-06-20T07:10:55.425Z,23.70
2019-06-20T07:13:23.829Z,23.80
2019-06-20T07:15:52.487Z,23.80
2019-06-20T07:18:20.914Z,24.10
2019-06-20T07:20:49.481Z,24.40
2019-06-20T07:23:17.872Z,24.40
2019-06-20T07:25:46.256Z,24.70
2019-06-20T07:28:15.912Z,24.90
2019-06-20T07:30:44.308Z,25.20
2019-06-20T07:33:12.764Z,25.10
2019-06-20T07:35:42.575Z,25.50
2019-06-20T07:38:11.044Z,25.90
2019-06-20T07:40:39.435Z,26.10
2019-06-20T07:43:07.839Z,26.30
2019-06-20T07:45:36.213Z,26.40
2019-06-20T07:48:04.847Z,26.50
2019-06-20T07:50:52.565Z,26.40
2019-06-20T07:53:20.974Z,26.80
2019-06-20T07:55:49.370Z,27.00
2019-06-20T07:58:17.783Z,27.20
2019-06-20T08:00:46.191Z,27.40
2019-06-20T08:03:14.577Z,27.80
2019-06-20T08:05:42.949Z,27.90
2019-06-20T08:08:11.362Z,28.00
2019-06-20T08:10:39.736Z,28.30
2019-06-20T08:13:08.156Z,28.20
2019-06-20T08:15:36.616Z,28.40
2019-06-20T08:18:05.507Z,28.80
2019-06-20T08:20:33.999Z,28.90
2019-06-20T08:23:02.468Z,28.70
2019-06-20T08:25:30.880Z,28.90
2019-06-20T08:28:00.741Z,28.60
2019-06-20T08:30:34.005Z,28.60
2019-06-20T08:33:07.629Z,28.90
2019-06-20T08:35:32.712Z,29.00
2019-06-20T08:38:03.741Z,29.30
2019-06-20T08:40:35.766Z,29.70
2019-06-20T08:43:04.424Z,30.00
2019-06-20T08:45:33.853Z,30.00
2019-06-20T08:48:02.735Z,30.10
2019-06-20T08:50:31.841Z,30.10
2019-06-20T08:53:01.497Z,30.60
2019-06-20T08:55:29.435Z,30.80
2019-06-20T08:57:59.457Z,30.70
2019-06-20T09:00:29.669Z,30.70
2019-06-20T09:02:58.688Z,30.50
2019-06-20T09:05:30.527Z,30.80
2019-06-20T09:10:44.239Z,31.10
2019-06-20T09:13:13.122Z,30.90
2019-06-20T09:15:42.487Z,30.30
2019-06-20T09:18:11.022Z,30.90
2019-06-20T09:20:40.444Z,30.80
2019-06-20T09:23:08.843Z,30.30
2019-06-20T09:25:37.662Z,30.90
2019-06-20T09:28:06.893Z,31.50
2019-06-20T09:30:36.432Z,31.10
2019-06-20T09:33:05.496Z,31.60
2019-06-20T09:35:33.891Z,32.20
2019-06-20T09:38:03.434Z,32.50
2019-06-20T09:40:32.095Z,32.70
2019-06-20T09:43:00.524Z,33.10
2019-06-20T09:45:29.016Z,32.80
2019-06-20T09:47:58.254Z,32.30
2019-06-20T09:50:27.119Z,32.40
2019-06-20T09:52:56.605Z,32.10
2019-06-20T09:55:25.299Z,32.60
2019-06-20T09:57:53.817Z,32.50
2019-06-20T10:00:25.645Z,33.20
2019-06-20T10:02:55.757Z,32.60
2019-06-20T10:05:24.762Z,31.80
2019-06-20T10:07:54.526Z,32.20
2019-06-20T10:10:28.603Z,31.70
2019-06-20T10:12:57.526Z,32.00
2019-06-20T10:15:33.582Z,32.00
2019-06-20T10:18:02.015Z,32.40
2019-06-20T10:20:30.555Z,32.30
2019-06-20T10:22:59.015Z,32.30
2019-06-20T10:25:28.385Z,32.20
2019-06-20T10:27:57.891Z,32.30
2019-06-20T10:30:27.497Z,32.30
2019-06-20T10:32:57.550Z,32.50
2019-06-20T10:35:25.312Z,32.20
2019-06-20T10:37:53.705Z,31.90
2019-06-20T10:40:23.807Z,31.70
2019-06-20T10:42:52.985Z,30.40
2019-06-20T10:45:24.592Z,29.30
2019-06-20T10:47:53.594Z,28.40
2019-06-20T10:50:23.040Z,28.00
2019-06-20T10:52:51.913Z,27.50
2019-06-20T10:55:21.011Z,27.50
2019-06-20T10:57:49.964Z,27.30
2019-06-20T11:00:30.119Z,27.00
2019-06-20T11:02:51.191Z,26.50
2019-06-20T11:05:20.219Z,25.60
2019-06-20T11:07:49.959Z,25.10
2019-06-20T11:10:19.678Z,24.80
2019-06-20T11:12:53.770Z,24.40
2019-06-20T11:15:20.413Z,24.40
2019-06-20T11:17:48.895Z,24.40
2019-06-20T11:20:18.071Z,24.80
2019-06-20T11:22:47.822Z,24.90
2019-06-20T11:25:19.362Z,24.90
2019-06-20T11:27:47.587Z,25.40
2019-06-20T11:30:27.770Z,25.70
2019-06-20T11:32:56.200Z,25.70
2019-06-20T11:35:24.616Z,26.00
2019-06-20T11:37:53.047Z,26.40
2019-06-20T11:40:22.485Z,26.80
2019-06-20T11:42:50.870Z,27.20
2019-06-20T11:45:19.611Z,27.40
2019-06-20T11:47:48.098Z,27.70
2019-06-20T11:50:17.833Z,28.10
2019-06-20T11:52:46.248Z,28.50
2019-06-20T11:55:16.586Z,28.70
2019-06-20T11:57:45.044Z,28.80
2019-06-20T12:00:14.327Z,28.60
2019-06-20T12:02:44.120Z,28.60
2019-06-20T12:05:22.014Z,28.60
2019-06-20T12:07:51.589Z,28.80
2019-06-20T12:10:21.241Z,28.80
2019-06-20T12:12:49.761Z,28.30
2019-06-20T12:15:18.642Z,28.30
2019-06-20T12:17:47.338Z,28.20
2019-06-20T12:20:16.697Z,28.40
2019-06-20T12:22:46.506Z,28.20
2019-06-20T12:25:16.980Z,27.70
2019-06-20T12:27:45.670Z,27.00
2019-06-20T12:30:19.723Z,26.80
2019-06-20T12:32:49.323Z,26.70
2019-06-20T12:35:18.195Z,26.40
2019-06-20T12:37:47.849Z,26.50
2019-06-20T12:40:16.980Z,26.50
2019-06-20T12:42:46.617Z,26.20
2019-06-20T12:45:16.154Z,26.20
2019-06-20T12:47:46.064Z,26.30
2019-06-20T12:50:14.413Z,26.00
2019-06-20T12:52:42.900Z,25.80
2019-06-20T12:55:12.935Z,25.60
2019-06-20T12:57:42.241Z,25.50
2019-06-20T13:00:12.555Z,25.50
2019-06-20T13:02:41.924Z,25.30
2019-06-20T13:05:11.417Z,25.80
2019-06-20T13:07:40.713Z,25.90
2019-06-20T13:10:10.905Z,25.60
2019-06-20T13:12:40.689Z,25.50
2019-06-20T13:15:09.501Z,25.50
2019-06-20T13:17:38.264Z,25.10
2019-06-20T13:20:10.058Z,25.30
2019-06-20T13:22:39.561Z,25.20
2019-06-20T13:25:09.250Z,25.40
2019-06-20T13:27:39.094Z,25.50
2019-06-20T13:30:09.916Z,25.80
2019-06-20T13:32:39.674Z,26.00
2019-06-20T13:35:09.324Z,26.00
2019-06-20T13:37:38.455Z,25.80
2019-06-20T13:40:10.504Z,25.80
2019-06-20T13:42:40.249Z,26.30
2019-06-20T13:45:13.353Z,26.50
2019-06-20T13:47:41.408Z,26.00
2019-06-20T13:50:10.328Z,26.10
2019-06-20T13:52:42.816Z,26.30
2019-06-20T13:55:09.601Z,26.40
2019-06-20T13:57:38.010Z,26.40
2019-06-20T14:00:10.250Z,26.60
2019-06-20T14:02:39.681Z,26.70
2019-06-20T14:05:09.713Z,26.70
2019-06-20T14:07:38.103Z,26.60
2019-06-20T14:10:09.498Z,26.70
2019-06-20T14:12:37.892Z,26.80
2019-06-20T14:15:08.514Z,26.40
2019-06-20T14:17:36.883Z,26.60
2019-06-20T14:20:08.899Z,26.60
2019-06-20T14:22:37.358Z,26.80
2019-06-20T14:25:06.703Z,26.60
2019-06-20T14:27:35.339Z,26.60
2019-06-20T14:30:08.562Z,26.60
2019-06-20T14:32:38.209Z,26.80
2019-06-20T14:35:07.044Z,26.80
2019-06-20T14:37:35.712Z,26.70
2019-06-20T14:40:07.125Z,26.40
2019-06-20T14:42:35.747Z,26.40
2019-06-20T14:45:06.392Z,26.10
2019-06-20T14:47:35.336Z,26.30
2019-06-20T14:50:08.414Z,26.20
2019-06-20T14:52:37.161Z,26.20
2019-06-20T14:55:06.428Z,26.30
2019-06-20T14:57:35.144Z,26.20
2019-06-20T15:00:09.065Z,26.20
2019-06-20T15:02:39.033Z,26.30
2019-06-20T15:05:10.779Z,26.50
2019-06-20T15:07:39.284Z,26.50
2019-06-20T15:10:07.851Z,26.60
2019-06-20T15:12:36.255Z,26.50
2019-06-20T15:15:06.276Z,26.50
2019-06-20T15:17:34.654Z,26.40
2019-06-20T15:20:04.780Z,26.70
2019-06-20T15:22:33.179Z,27.20
2019-06-20T15:25:01.638Z,26.60
2019-06-20T15:27:30.024Z,26.40
2019-06-20T15:29:58.425Z,26.10
2019-06-20T15:32:26.812Z,25.70
2019-06-20T15:34:55.231Z,25.90
2019-06-20T15:37:23.597Z,26.40
2019-06-20T15:39:53.348Z,26.70
2019-06-20T15:42:22.560Z,26.60
2019-06-20T15:44:51.839Z,26.50
2019-06-20T15:47:20.321Z,26.50
2019-06-20T15:49:49.048Z,26.40
2019-06-20T15:52:17.429Z,26.10
2019-06-20T15:54:45.840Z,26.00
2019-06-20T15:57:15.374Z,26.00
2019-06-20T15:59:43.826Z,26.00
2019-06-20T16:02:12.230Z,26.00
2019-06-20T16:04:42.918Z,26.40
2019-06-20T16:07:12.248Z,26.50
2019-06-20T16:09:40.639Z,27.10
2019-06-20T16:12:09.083Z,27.40
2019-06-20T16:14:37.533Z,27.80
2019-06-20T16:17:06.098Z,27.90
2019-06-20T16:19:34.531Z,28.10
2019-06-20T16:22:02.929Z,28.10
2019-06-20T16:24:31.380Z,27.90
2019-06-20T16:26:59.787Z,28.00
2019-06-20T16:29:28.176Z,28.20
2019-06-20T16:31:56.576Z,28.00
2019-06-20T16:34:25.039Z,27.90
2019-06-20T16:37:06.605Z,28.10
2019-06-20T16:39:23.533Z,27.70
2019-06-20T16:41:52.067Z,27.60
2019-06-20T16:44:21.830Z,27.80
2019-06-20T16:46:50.440Z,27.80
2019-06-20T16:49:18.823Z,28.00
2019-06-20T16:51:47.216Z,27.90
2019-06-20T16:54:15.604Z,28.00
2019-06-20T16:56:44.010Z,28.00
2019-06-20T16:59:14.319Z,27.70
2019-06-20T17:01:42.529Z,27.80
2019-06-20T17:04:10.917Z,27.60
2019-06-20T17:06:39.361Z,27.50
2019-06-20T17:09:08.876Z,27.40
2019-06-20T17:11:37.300Z,27.30
2019-06-20T17:14:05.709Z,27.30
2019-06-20T17:16:34.106Z,27.20
2019-06-20T17:19:02.502Z,27.00
2019-06-20T17:21:30.908Z,27.00
2019-06-20T17:24:00.848Z,26.90
2019-06-20T17:26:29.329Z,26.80
2019-06-20T17:28:57.810Z,26.90
2019-06-20T17:31:26.219Z,26.80
2019-06-20T17:33:57.727Z,26.80
2019-06-20T17:36:26.703Z,26.80
2019-06-20T17:38:55.170Z,26.80
2019-06-20T17:41:23.686Z,26.70
2019-06-20T17:43:52.137Z,26.80
2019-06-20T17:46:20.597Z,26.80
2019-06-20T17:48:50.377Z,26.90
2019-06-20T17:51:21.643Z,27.00
2019-06-20T17:53:50.045Z,26.90
2019-06-20T17:56:18.501Z,26.80
2019-06-20T17:58:47.010Z,26.80
2019-06-20T18:01:15.453Z,26.70
2019-06-20T18:03:43.877Z,26.50
2019-06-20T18:06:12.490Z,26.50
2019-06-20T18:08:40.883Z,26.30
2019-06-20T18:11:09.277Z,26.30
2019-06-20T18:13:37.742Z,26.20
2019-06-20T18:16:06.273Z,26.10
2019-06-20T18:18:34.668Z,26.10
2019-06-20T18:21:03.142Z,26.20
2019-06-20T18:23:31.541Z,26.20
2019-06-20T18:26:00.252Z,26.10
2019-06-20T18:28:28.658Z,26.10
2019-06-20T18:30:57.078Z,26.00
2019-06-20T18:33:25.802Z,26.00
2019-06-20T18:35:54.185Z,25.80
2019-06-20T18:38:22.612Z,25.80
2019-06-20T18:40:50.984Z,25.60
2019-06-20T18:43:19.407Z,25.50
2019-06-20T18:45:47.832Z,25.50
2019-06-20T18:48:16.235Z,25.50
2019-06-20T18:50:44.628Z,25.40
2019-06-20T18:53:13.362Z,25.20
2019-06-20T18:55:42.028Z,25.10
2019-06-20T18:58:10.508Z,25.10
2019-06-20T19:00:39.042Z,25.00
2019-06-20T19:03:07.687Z,24.90
2019-06-20T19:05:36.101Z,24.80
2019-06-20T19:08:04.717Z,24.80
2019-06-20T19:10:33.784Z,24.70
2019-06-20T19:13:02.272Z,24.70
2019-06-20T19:15:30.745Z,24.70
2019-06-20T19:17:59.131Z,24.50
2019-06-20T19:20:27.536Z,24.50
2019-06-20T19:22:57.662Z,24.50
2019-06-20T19:25:26.815Z,24.40
2019-06-20T19:27:55.497Z,24.30
2019-06-20T19:30:27.041Z,24.10
2019-06-20T19:32:55.636Z,24.00
2019-06-20T19:35:24.144Z,23.90
2019-06-20T19:37:52.555Z,23.80
2019-06-20T19:40:24.012Z,23.70
2019-06-20T19:42:52.413Z,23.70
2019-06-20T19:45:21.145Z,23.60
2019-06-20T19:47:50.907Z,23.50
2019-06-20T19:50:19.371Z,23.40
2019-06-20T19:52:47.766Z,23.30
2019-06-20T19:55:16.517Z,23.30
2019-06-20T19:57:45.267Z,23.10
2019-06-20T20:00:15.387Z,23.10
2019-06-20T20:02:44.126Z,23.10
2019-06-20T20:05:19.229Z,22.90
2019-06-20T20:07:42.768Z,22.90
2019-06-20T20:10:11.508Z,22.90
2019-06-20T20:12:39.884Z,22.80
2019-06-20T20:15:09.325Z,22.80
2019-06-20T20:17:37.759Z,22.80
2019-06-20T20:20:07.990Z,22.80
2019-06-20T20:22:36.398Z,22.70
2019-06-20T20:25:09.152Z,22.70
2019-06-20T20:27:37.672Z,22.70
2019-06-20T20:30:10.650Z,22.60
2019-06-20T20:32:39.288Z,22.60
2019-06-20T20:35:07.785Z,22.50
2019-06-20T20:37:36.548Z,22.40
2019-06-20T20:40:09.328Z,22.40
2019-06-20T20:42:38.788Z,22.40
2019-06-20T20:45:07.717Z,22.40
2019-06-20T20:47:36.181Z,22.40
2019-06-20T20:50:09.633Z,22.30
2019-06-20T20:52:38.048Z,22.30
2019-06-20T20:55:07.228Z,22.20
2019-06-20T20:57:35.661Z,22.10
2019-06-20T21:00:10.279Z,22.10
2019-06-20T21:02:38.683Z,22.00
2019-06-20T21:05:07.915Z,21.90
2019-06-20T21:07:39.068Z,21.90
2019-06-20T21:10:08.337Z,21.80
2019-06-20T21:12:36.741Z,21.70
2019-06-20T21:15:08.700Z,21.70
2019-06-20T21:17:37.100Z,21.60
2019-06-20T21:20:08.709Z,21.60
2019-06-20T21:22:37.117Z,21.40
2019-06-20T21:25:07.323Z,21.40
2019-06-20T21:27:35.692Z,21.40
2019-06-20T21:30:06.628Z,21.30
2019-06-20T21:32:35.168Z,21.30
2019-06-20T21:35:05.789Z,21.20
2019-06-20T21:37:34.269Z,21.30
2019-06-20T21:40:02.974Z,21.20
2019-06-20T21:42:31.378Z,21.20
2019-06-20T21:44:59.759Z,21.00
2019-06-20T21:47:28.154Z,21.00
2019-06-20T21:49:56.551Z,20.90
2019-06-20T21:52:24.949Z,20.90
2019-06-20T21:54:53.336Z,20.80
2019-06-20T21:57:21.801Z,20.80
2019-06-20T21:59:50.185Z,20.80
2019-06-20T22:02:18.576Z,20.80
2019-06-20T22:04:54.433Z,20.70
2019-06-20T22:07:17.151Z,20.70
2019-06-20T22:09:45.526Z,20.60
2019-06-20T22:12:13.993Z,20.60
2019-06-20T22:14:42.380Z,20.50
2019-06-20T22:17:10.764Z,20.50
2019-06-20T22:19:39.152Z,20.50
2019-06-20T22:22:07.601Z,20.40
2019-06-20T22:24:36.322Z,20.30
2019-06-20T22:27:04.836Z,20.30
2019-06-20T22:29:33.236Z,20.30
2019-06-20T22:32:01.620Z,20.30
2019-06-20T22:34:30.036Z,20.30
2019-06-20T22:36:58.397Z,20.20
2019-06-20T22:39:27.355Z,20.20
2019-06-20T22:41:55.787Z,20.20
2019-06-20T22:44:24.230Z,20.10
2019-06-20T22:46:52.650Z,20.10
2019-06-20T22:49:21.087Z,20.10
2019-06-20T22:51:49.739Z,20.00
2019-06-20T22:54:18.134Z,20.00
2019-06-20T22:56:46.576Z,20.00
2019-06-20T22:59:16.611Z,19.90
2019-06-20T23:01:45.005Z,19.90
2019-06-20T23:04:13.401Z,19.90
2019-06-20T23:06:55.393Z,19.90
2019-06-20T23:09:12.492Z,19.90
2019-06-20T23:11:40.909Z,19.90
2019-06-20T23:14:09.336Z,19.90
2019-06-20T23:16:37.791Z,19.80
2019-06-20T23:19:06.184Z,19.80
2019-06-20T23:21:34.909Z,19.70
2019-06-20T23:24:03.371Z,19.70
2019-06-20T23:26:31.759Z,19.60
2019-06-20T23:29:18.067Z,19.60
2019-06-20T23:31:46.453Z,19.60
2019-06-20T23:34:14.851Z,19.60
2019-06-20T23:36:44.506Z,19.60
2019-06-20T23:39:12.893Z,19.60
2019-06-20T23:41:41.359Z,19.60
2019-06-20T23:44:11.111Z,19.60
2019-06-20T23:46:39.640Z,19.60
2019-06-20T23:49:08.286Z,19.60
2019-06-20T23:51:41.221Z,19.60
2019-06-20T23:54:09.625Z,19.60
2019-06-20T23:56:38.004Z,19.50
2019-06-20T23:59:06.450Z,19.50
